Latest Coastal Weather Observations for Swan Island

IDT60701

Issued at 4:52 am EST Thursday 3 September 2026 (issued every 10 minutes, with the page automatically refreshed every 10 minutes)

About coastal observations | Map of coastal stations | Coastal observations for TAS | Marine services | Other Formats
Station Details ID: 092123 Name: SWAN ISLAND Lat: -40.73 Lon: 148.12 Height: 15.0 m
Data from the previous 72 hours. | See also: Recent months at Swan Island
Date/Time
EST
Wind Sea
Height
m
Swell Vis
km
Cloud Weather Temp
°C
Press
MSL
hPa
Rain since
9am
mm
Dir  Spd
kts
Gust
kts
Height
m
Period
s
Dir
03/04:30am NW 25 34 - - - - - - - 13.1 1001.0 0.4
03/04:00am NW 25 35 - - - - - - - 12.9 1001.2 0.4
03/03:30am NW 24 34 - - - - - - - 12.9 1001.6 0.4
03/03:08am NW 23 33 - - - - - - - 12.7 1002.0 0.4
03/03:06am NW 24 33 - - - - - - - 12.7 1002.0 0.4
03/03:00am NW 25 33 - - - - - - - 12.7 1002.0 0.4
03/02:50am NW 23 33 - - - - - - - 12.9 1002.2 0.4
03/02:45am NW 24 32 - - - - - - - 13.0 1002.3 0.4
03/02:35am NW 22 32 - - - - - - - 13.0 1002.5 0.4
03/02:30am NW 22 31 - - - - - - - 13.0 1002.7 0.4
03/02:00am NW 22 31 - - - - - - - 12.9 1003.3 0.4
03/01:36am NW 20 27 - - - - - - - 12.9 1003.9 0.4
03/01:30am NW 19 27 - - - - - - - 12.9 1004.0 0.4
03/01:16am NW 21 32 - - - - - - - 12.7 1004.0 0.4
03/01:00am NW 17 26 - - - - - - - 12.9 1004.2 0.4
03/12:38am WNW 22 30 - - - - - - - 12.7 1004.4 0.4
03/12:30am WNW 21 30 - - - - - - - 12.7 1004.5 0.4
03/12:17am WNW 21 32 - - - - - - - 12.7 1004.5 0.4
03/12:00am NW 19 27 - - - - - - - 12.5 1004.8 0.4
 
Date/Time
EST
Wind Sea
Height
m
Swell Vis
km
Cloud Weather Temp
°C
Press
MSL
hPa
Rain since
9am
mm
Dir  Spd
kts
Gust
kts
Height
m
Period
s
Dir
02/11:30pm NW 19 27 - - - - - - - 12.4 1005.3 0.4
02/11:00pm NW 22 29 - - - - - - - 12.4 1005.6 0.4
02/10:30pm WNW 19 27 - - - - - - - 11.9 1006.0 0.4
02/10:00pm WNW 21 29 - - - - - - - 12.4 1006.7 0.4
02/09:30pm WNW 21 28 - - - - - - - 12.3 1006.9 0.4
02/09:00pm WNW 20 25 - - - - - - - 12.1 1007.2 0.4
02/08:30pm NW 19 26 - - - - - - - 12.2 1007.4 0.4
02/08:00pm NW 19 26 - - - - - - - 11.9 1007.2 0.4
02/07:30pm WNW 18 26 - - - - - - - 11.3 1007.4 0.4
02/07:17pm WNW 16 22 - - - - - - - 11.7 1007.5 0.4
02/07:07pm WNW 18 28 - - - - - - - 11.4 1007.5 0.4
02/07:00pm WNW 20 28 - - - - - - - 11.6 1007.6 0.4
02/06:30pm WNW 19 25 - - - - - - - 12.2 1007.5 0.0
02/06:00pm WNW 19 26 - - - - - - - 12.6 1007.5 0.0
02/05:30pm WNW 20 27 - - - - - - - 12.9 1007.4 0.0
02/05:00pm WNW 18 26 - - - - - - - 13.1 1007.4 0.0
02/04:30pm WNW 19 26 - - - - - - - 13.5 1007.4 0.0
02/04:00pm WNW 18 27 - - - - - - - 13.7 1007.4 0.0
02/03:50pm WNW 19 29 - - - - - - - 13.6 1007.4 0.0
02/03:30pm WNW 20 29 - - - - - - - 13.4 1007.3 0.0
02/03:20pm WNW 21 32 - - - - - - - 13.7 1007.3 0.0
02/03:00pm WNW 22 30 - - - - - - - 13.9 1007.5 0.0
02/02:30pm WNW 21 28 - - - - - - - 13.9 1007.6 0.0
02/02:00pm WNW 21 27 - - - - - - - 14.2 1007.6 0.0
02/01:30pm WNW 20 28 - - - - - - - 14.2 1007.8 0.0
02/01:27pm WNW 19 27 - - - - - - - 14.4 1007.9 0.0
02/01:11pm W 15 25 - - - - - - - 14.6 1008.1 0.0
02/01:00pm W 20 27 - - - - - - - 14.1 1008.2 0.0
02/12:49pm W 24 30 - - - - - - - 13.8 1008.3 0.0
02/12:30pm WNW 18 29 - - - - - - - 14.9 1008.6 0.0
02/12:12pm WNW 20 31 - - - - - - - 14.3 1008.8 0.0
02/12:09pm WNW 22 31 - - - - - - - 13.8 1008.8 0.0
02/12:00pm WNW 22 31 - - - - - - - 12.8 1009.0 0.0
02/11:54am W 18 31 - - - - - - - 14.1 1009.1 0.0
02/11:53am W 19 29 - - - - - - - 14.3 1009.1 0.0
02/11:30am WNW 17 29 - - - - - - - 14.1 1009.1 0.0
02/11:10am WNW 17 29 - - - - - - - 14.3 1009.4 0.0
02/11:00am WNW 17 26 - - - - - - - 14.1 1009.4 0.0
02/10:48am WNW 18 27 - - - - - - - 13.7 1009.5 0.0
02/10:30am WNW 21 31 - - - - - - - 13.0 1009.4 0.0
02/10:20am WNW 21 33 - - - - - - - 13.4 1009.4 0.0
02/10:11am WNW 20 27 - - - - - - - 13.8 1009.4 0.0
02/10:00am WNW 19 30 - - - - - - - 13.7 1009.5 0.0
02/09:56am WNW 18 30 - - - - - - - 13.8 1009.5 0.0
02/09:30am W 17 26 - - - - - - - 13.7 1009.6 0.0
02/09:03am W 20 28 - - - - - - - 13.6 1009.6 0.0
02/09:00am W 18 27 - - - - - - - 13.3 1009.6 0.4
02/08:47am WNW 17 27 - - - - - - - 13.1 1009.6 0.4
02/08:38am W 18 26 - - - - - - - 12.9 1009.5 0.4
02/08:30am W 21 28 - - - - - - - 12.8 1009.5 0.4
02/08:01am WNW 17 27 - - - - - - - 12.4 1009.3 0.4
02/08:00am WNW 18 27 - - - - - - - 12.4 1009.3 0.4
02/07:58am WNW 18 27 - - - - - - - 12.4 1009.3 0.4
02/07:38am W 19 31 - - - - - - - 12.1 1009.0 0.4
02/07:30am W 22 31 - - - - - - - 12.0 1009.0 0.4
02/07:23am W 21 31 - - - - - - - 12.1 1008.9 0.4
02/07:00am W 22 33 - - - - - - - 11.7 1008.2 0.4
02/06:30am W 21 33 - - - - - - - 11.6 1007.6 0.4
02/06:02am W 23 34 - - - - - - - 11.5 1007.2 0.4
02/06:00am W 24 34 - - - - - - - 11.5 1007.2 0.4
02/05:52am W 27 36 - - - - - - - 11.7 1007.1 0.4
02/05:30am W 24 35 - - - - - - - 11.5 1006.8 0.4
02/05:00am W 26 35 - - - - - - - 11.6 1006.5 0.4
02/04:40am WNW 20 31 - - - - - - - 11.7 1006.3 0.4
02/04:38am WNW 20 30 - - - - - - - 11.7 1006.3 0.4
02/04:30am WNW 22 31 - - - - - - - 11.7 1006.1 0.4
02/04:00am WNW 18 28 - - - - - - - 12.1 1006.0 0.4
02/03:35am WNW 19 29 - - - - - - - 12.3 1005.8 0.4
02/03:33am WNW 19 28 - - - - - - - 12.3 1005.8 0.4
02/03:30am WNW 18 27 - - - - - - - 12.2 1005.9 0.4
02/03:14am WNW 16 27 - - - - - - - 12.2 1006.0 0.4
02/03:00am WNW 17 25 - - - - - - - 12.3 1006.1 0.4
02/02:30am WNW 16 23 - - - - - - - 12.8 1006.2 0.4
02/02:00am WNW 19 28 - - - - - - - 13.3 1006.3 0.4
02/01:30am NW 22 29 - - - - - - - 13.8 1006.4 0.4
02/01:15am NW 24 31 - - - - - - - 13.8 1005.9 0.4
02/01:00am NW 23 33 - - - - - - - 13.8 1005.8 0.4
02/12:37am NW 23 33 - - - - - - - 13.7 1005.8 0.4
02/12:35am NW 23 31 - - - - - - - 13.7 1005.8 0.4
02/12:30am NW 22 31 - - - - - - - 13.7 1005.9 0.4
02/12:16am NW 23 33 - - - - - - - 13.8 1006.1 0.4
02/12:01am NW 22 29 - - - - - - - 13.7 1006.3 0.4
02/12:00am NW 22 30 - - - - - - - 13.7 1006.3 0.4
 
Date/Time
EST
Wind Sea
Height
m
Swell Vis
km
Cloud Weather Temp
°C
Press
MSL
hPa
Rain since
9am
mm
Dir  Spd
kts
Gust
kts
Height
m
Period
s
Dir
01/11:50pm NW 19 29 - - - - - - - 13.6 1006.4 0.4
01/11:30pm NW 21 28 - - - - - - - 13.9 1006.7 0.4
01/11:00pm NW 22 29 - - - - - - - 13.9 1006.7 0.4
01/10:33pm NW 23 33 - - - - - - - 13.7 1006.8 0.4
01/10:30pm NW 23 33 - - - - - - - 13.8 1006.8 0.4
01/10:23pm NW 22 33 - - - - - - - 13.9 1007.0 0.2
01/10:00pm NW 23 29 - - - - - - - 14.0 1006.8 0.2
01/09:30pm WNW 19 24 - - - - - - - 13.9 1007.7 0.0
01/09:00pm WNW 25 34 - - - - - - - 14.5 1007.4 0.0
01/08:30pm NW 25 32 - - - - - - - 14.8 1007.5 0.0
01/08:00pm NW 19 28 - - - - - - - 14.5 1007.8 0.0
01/07:30pm NW 22 28 - - - - - - - 14.2 1007.9 0.0
01/07:00pm NW 23 28 - - - - - - - 14.0 1007.9 0.0
01/06:30pm NW 23 28 - - - - - - - 14.3 1008.0 0.0
01/06:00pm NW 19 24 - - - - - - - 14.1 1008.2 0.0
01/05:30pm NW 23 28 - - - - - - - 14.3 1008.4 0.0
01/05:00pm NNW 25 30 - - - - - - - 14.4 1008.4 0.0
01/04:30pm NNW 26 31 - - - - - - - 14.7 1008.0 0.0
01/04:00pm NNW 26 31 - - - - - - - 14.6 1008.3 0.0
01/03:30pm NNW 25 29 - - - - - - - 14.4 1008.8 0.0
01/03:00pm NNW 25 29 - - - - - - - 14.6 1009.5 0.0
01/02:30pm NW 23 28 - - - - - - - 15.0 1010.0 0.0
01/02:00pm NW 24 28 - - - - - - - 14.8 1010.7 0.0
01/01:30pm NW 24 28 - - - - - - - 15.0 1011.3 0.0
01/01:00pm NW 25 30 - - - - - - - 15.2 1012.1 0.0
01/12:30pm NNW 21 28 - - - - - - - 15.0 1013.1 0.0
01/12:00pm NNW 21 25 - - - - - - - 14.8 1013.8 0.0
01/11:30am NNW 22 26 - - - - - - - 15.1 1014.4 0.0
01/11:00am NNW 22 26 - - - - - - - 14.6 1014.9 0.0
01/10:30am NNW 23 29 - - - - - - - 14.6 1015.4 0.0
01/10:00am NNW 19 23 - - - - - - - 14.3 1016.0 0.0
01/09:30am NNW 20 24 - - - - - - - 13.7 1016.4 0.0
01/09:00am NNW 17 21 - - - - - - - 13.2 1017.2 0.0
01/08:30am NNW 15 18 - - - - - - - 12.6 1017.8 0.0
01/08:00am NW 16 20 - - - - - - - 12.1 1018.3 0.0
01/07:30am NW 14 18 - - - - - - - 11.8 1018.6 0.0
01/07:00am NW 13 18 - - - - - - - 11.6 1018.7 0.0
01/06:30am WNW 13 18 - - - - - - - 11.5 1018.9 0.0
01/06:00am WNW 12 18 - - - - - - - 11.5 1019.3 0.0
01/05:30am WNW 14 19 - - - - - - - 11.3 1019.4 0.0
01/05:00am WNW 14 19 - - - - - - - 10.8 1019.7 0.0
01/04:30am WNW 13 18 - - - - - - - 10.7 1020.1 0.0
01/04:00am WNW 14 18 - - - - - - - 10.6 1020.4 0.0
01/03:30am WNW 13 18 - - - - - - - 10.8 1020.8 0.0
01/03:00am NW 14 19 - - - - - - - 11.2 1021.2 0.0
01/02:30am NW 13 19 - - - - - - - 11.4 1021.6 0.0
01/02:00am NW 13 19 - - - - - - - 11.7 1022.2 0.0
01/01:30am WNW 13 17 - - - - - - - 11.6 1022.7 0.0
01/01:00am WNW 14 19 - - - - - - - 11.5 1022.8 0.0
01/12:30am WNW 15 20 - - - - - - - 11.5 1023.1 0.0
01/12:00am WNW 14 19 - - - - - - - 11.5 1023.5 0.0
 
Date/Time
EST
Wind Sea
Height
m
Swell Vis
km
Cloud Weather Temp
°C
Press
MSL
hPa
Rain since
9am
mm
Dir  Spd
kts
Gust
kts
Height
m
Period
s
Dir
31/11:30pm WNW 15 20 - - - - - - - 11.3 1023.7 0.0
31/11:00pm WNW 16 22 - - - - - - - 11.4 1024.0 0.0
31/10:30pm WNW 15 21 - - - - - - - 11.4 1024.3 0.0
31/10:00pm NW 16 21 - - - - - - - 11.4 1024.6 0.0
31/09:30pm WNW 13 18 - - - - - - - 11.6 1024.8 0.0
31/09:00pm WNW 15 20 - - - - - - - 11.6 1024.8 0.0
31/08:30pm WNW 13 17 - - - - - - - 11.5 1025.2 0.0
31/08:00pm WNW 15 20 - - - - - - - 11.6 1025.0 0.0
31/07:30pm WNW 13 17 - - - - - - - 11.8 1025.4 0.0
31/07:00pm WNW 12 18 - - - - - - - 11.6 1025.5 0.0
31/06:30pm WNW 13 18 - - - - - - - 11.7 1025.5 0.0
31/06:00pm WNW 15 19 - - - - - - - 11.6 1025.4 0.0
31/05:30pm WNW 12 18 - - - - - - - 12.0 1025.7 0.0
31/05:00pm WNW 15 21 - - - - - - - 11.9 1025.6 0.0
31/04:30pm WNW 13 19 - - - - - - - 12.3 1025.9 0.0
31/04:00pm WNW 12 17 - - - - - - - 12.2 1026.2 0.0
31/03:30pm WNW 15 19 - - - - - - - 12.5 1025.9 0.0
31/03:00pm WNW 12 17 - - - - - - - 12.8 1026.4 0.0
31/02:30pm WNW 12 18 - - - - - - - 12.8 1026.7 0.0
31/02:00pm WNW 12 18 - - - - - - - 13.0 1026.6 0.0
31/01:30pm WNW 13 18 - - - - - - - 13.3 1026.8 0.0
31/01:00pm WNW 15 20 - - - - - - - 13.4 1027.1 0.0
31/12:30pm WNW 15 21 - - - - - - - 13.9 1027.3 0.0
31/12:00pm WNW 16 23 - - - - - - - 14.0 1027.4 0.0
31/11:30am WNW 16 25 - - - - - - - 14.3 1027.5 0.0
31/11:00am W 18 24 - - - - - - - 14.2 1027.7 0.0
31/10:30am WNW 17 24 - - - - - - - 14.0 1027.8 0.0
31/10:00am WNW 13 19 - - - - - - - 13.5 1028.0 0.0
31/09:30am WNW 14 19 - - - - - - - 13.6 1028.0 0.0
31/09:00am WNW 15 22 - - - - - - - 13.1 1027.9 0.0
31/08:30am WNW 13 21 - - - - - - - 12.9 1028.0 0.0
31/08:00am WNW 14 20 - - - - - - - 12.4 1027.8 0.0
31/07:30am WNW 14 21 - - - - - - - 11.9 1027.4 0.0
31/07:00am WNW 15 23 - - - - - - - 11.6 1026.8 0.0
31/06:30am WNW 15 22 - - - - - - - 11.4 1026.6 0.0
31/06:00am WNW 16 22 - - - - - - - 11.4 1026.4 0.0
31/05:30am WNW 14 19 - - - - - - - 11.4 1026.3 0.0
31/05:00am WNW 19 26 - - - - - - - 11.4 1026.2 0.0

Other formats

Comma delimited format used in spreadsheet applications
http://www.bom.gov.au/fwo/IDT60701/IDT60701.95985.axf

JavaScript Object Notation format (JSON) in row-major order
http://www.bom.gov.au/fwo/IDT60701/IDT60701.95985.json

Data quality

Most of these data are generated automatically and are frequently updated. Quality checks on data are not normally performed. It is possible for incorrect values to appear. Refer to information at About Latest Weather Observations and please check the disclaimer before using these data.